Time,TemperatureF,DewpointF,PressureIn,WindDirection,WindDirectionDegrees,WindSpeedMPH,WindSpeedGustMPH,Humidity,HourlyPrecipIn,Conditions,Clouds,dailyrainin,SoftwareType,DateUTC
2013-05-05 00:14:00,49.5,45.8,30.13,SE,135,0.0,-999.0,87,-99.99,,,0.00,Acu-Link.com,2013-05-05 04:14:00,
2013-05-05 00:37:00,48.7,45.9,30.13,East,90,0.0,-999.0,90,-99.99,,,0.00,Acu-Link.com,2013-05-05 04:37:00,
2013-05-05 00:54:00,48.4,45.6,30.14,South,180,0.0,-999.0,90,-99.99,,,0.00,Acu-Link.com,2013-05-05 04:54:00,
2013-05-05 01:21:00,50.4,46.7,30.13,South,180,0.0,-999.0,87,-99.99,,,0.00,Acu-Link.com,2013-05-05 05:21:00,
2013-05-05 14:12:00,78.1,45.8,30.06,East,90,1.7,-999.0,32,-99.99,,,0.00,Acu-Link.com,2013-05-05 18:12:00,
2013-05-05 14:27:00,76.3,45.1,30.06,ESE,112,0.0,-999.0,33,-99.99,,,0.00,Acu-Link.com,2013-05-05 18:27:00,
2013-05-05 14:43:00,75.7,41.2,30.06,SW,225,2.7,-999.0,29,-99.99,,,0.00,Acu-Link.com,2013-05-05 18:43:00,
2013-05-05 14:59:00,75.7,41.2,30.05,SSW,202,6.3,-999.0,29,-99.99,,,0.00,Acu-Link.com,2013-05-05 18:59:00,
2013-05-05 15:15:00,77.7,43.8,30.04,North,0,0.0,-999.0,30,-99.99,,,0.00,Acu-Link.com,2013-05-05 19:15:00,
2013-05-05 15:30:00,78.1,43.2,30.04,SW,225,3.7,-999.0,29,-99.99,,,0.00,Acu-Link.com,2013-05-05 19:30:00,
2013-05-05 15:46:00,78.1,40.4,30.03,NNE,22,0.0,-999.0,26,-99.99,,,0.00,Acu-Link.com,2013-05-05 19:46:00,
2013-05-05 16:01:00,77.9,40.2,30.02,North,0,3.7,-999.0,26,-99.99,,,0.00,Acu-Link.com,2013-05-05 20:01:00,
2013-05-05 16:17:00,79.2,40.3,30.02,SSW,202,0.0,-999.0,25,-99.99,,,0.00,Acu-Link.com,2013-05-05 20:17:00,
2013-05-05 16:32:00,78.4,39.7,30.01,South,180,0.0,-999.0,25,-99.99,,,0.00,Acu-Link.com,2013-05-05 20:32:00,
2013-05-05 16:47:00,77.7,36.9,30.01,South,180,4.2,-999.0,23,-99.99,,,0.00,Acu-Link.com,2013-05-05 20:47:00,
2013-05-05 17:02:00,78.8,36.7,30.01,SSW,202,0.0,-999.0,22,-99.99,,,0.00,Acu-Link.com,2013-05-05 21:02:00,
2013-05-05 17:17:00,78.1,35.0,30.01,East,90,1.7,-999.0,21,-99.99,,,0.00,Acu-Link.com,2013-05-05 21:17:00,
2013-05-05 17:33:00,78.1,35.0,30.00,WSW,247,5.3,-999.0,21,-99.99,,,0.00,Acu-Link.com,2013-05-05 21:33:00,
2013-05-05 17:48:00,78.1,37.3,30.00,SW,225,2.2,-999.0,23,-99.99,,,0.00,Acu-Link.com,2013-05-05 21:48:00,
2013-05-05 18:03:00,79.2,34.7,30.01,ESE,112,0.0,-999.0,20,-99.99,,,0.00,Acu-Link.com,2013-05-05 22:03:00,
2013-05-05 18:19:00,79.9,32.6,30.00,ENE,67,0.0,-999.0,18,-99.99,,,0.00,Acu-Link.com,2013-05-05 22:19:00,
2013-05-05 18:34:00,78.6,31.5,29.99,SSE,157,0.0,-999.0,18,-99.99,,,0.00,Acu-Link.com,2013-05-05 22:34:00,
2013-05-05 18:49:00,76.6,31.2,30.00,NE,45,0.0,-999.0,19,-99.99,,,0.00,Acu-Link.com,2013-05-05 22:49:00,
2013-05-05 19:05:00,75.7,33.0,30.00,ENE,67,0.0,-999.0,21,-99.99,,,0.00,Acu-Link.com,2013-05-05 23:05:00,
2013-05-05 19:20:00,73.9,31.5,30.01,SW,225,0.0,-999.0,21,-99.99,,,0.00,Acu-Link.com,2013-05-05 23:20:00,
2013-05-05 19:35:00,71.2,39.8,30.01,NNW,337,0.0,-999.0,32,-99.99,,,0.00,Acu-Link.com,2013-05-05 23:35:00,
2013-05-05 19:50:00,68.7,47.6,30.01,NNE,22,2.7,-999.0,47,-99.99,,,0.00,Acu-Link.com,2013-05-05 23:50:00,
2013-05-05 20:05:00,66.9,48.2,30.02,SE,135,0.0,-999.0,51,-99.99,,,0.00,Acu-Link.com,2013-05-06 00:05:00,
2013-05-05 20:21:00,64.8,47.3,30.02,SE,135,0.0,-999.0,53,-99.99,,,0.00,Acu-Link.com,2013-05-06 00:21:00,
2013-05-05 20:36:00,62.6,48.1,30.02,South,180,0.0,-999.0,59,-99.99,,,0.00,Acu-Link.com,2013-05-06 00:36:00,
2013-05-05 20:52:00,60.4,47.3,30.03,NNE,22,0.0,-999.0,62,-99.99,,,0.00,Acu-Link.com,2013-05-06 00:52:00,
2013-05-05 21:07:00,57.6,45.1,30.03,South,180,0.0,-999.0,63,-99.99,,,0.00,Acu-Link.com,2013-05-06 01:07:00,
2013-05-05 21:22:00,55.6,43.2,30.03,ESE,112,0.0,-999.0,63,-99.99,,,0.00,Acu-Link.com,2013-05-06 01:22:00,
2013-05-05 21:38:00,53.6,42.1,30.04,SSW,202,0.0,-999.0,65,-99.99,,,0.00,Acu-Link.com,2013-05-06 01:38:00,
2013-05-05 21:53:00,52.3,40.9,30.05,ESE,112,0.0,-999.0,65,-99.99,,,0.00,Acu-Link.com,2013-05-06 01:53:00,
2013-05-05 22:08:00,51.3,39.5,30.04,NNW,337,0.0,-999.0,64,-99.99,,,0.00,Acu-Link.com,2013-05-06 02:08:00,
2013-05-05 22:23:00,50.5,37.6,30.05,SSE,157,0.0,-999.0,61,-99.99,,,0.00,Acu-Link.com,2013-05-06 02:23:00,
2013-05-05 22:39:00,50.4,40.2,30.04,SSE,157,0.0,-999.0,68,-99.99,,,0.00,Acu-Link.com,2013-05-06 02:39:00,
2013-05-05 22:54:00,49.5,37.4,30.04,South,180,0.0,-999.0,63,-99.99,,,0.00,Acu-Link.com,2013-05-06 02:54:00,
2013-05-05 23:09:00,48.9,36.5,30.05,NE,45,0.0,-999.0,62,-99.99,,,0.00,Acu-Link.com,2013-05-06 03:09:00,
2013-05-05 23:25:00,48.7,38.6,30.04,SSW,202,0.0,-999.0,68,-99.99,,,0.00,Acu-Link.com,2013-05-06 03:25:00,
2013-05-05 23:40:00,49.1,34.5,30.04,SSW,202,0.0,-999.0,57,-99.99,,,0.00,Acu-Link.com,2013-05-06 03:40:00,
2013-05-05 23:55:00,51.1,33.1,30.05,SSW,202,0.0,-999.0,50,-99.99,,,0.00,Acu-Link.com,2013-05-06 03:55:00,